Kathmandu, Nepal
Current Conditions -  °F | °C
As of 6:50 PM on Thursday 23 Oct 2014 (Local Time) from VNKT Reporting Station
Few Clouds Few Clouds  
Wind Chill: 64°   Ceiling: Unl
Heat Index: 64°   Visibility: 5mi
Dew Point: 59°   Wind: 5mph
Humidity: 83%   Direction: 250°WSW
Pressure: 30.12"   Gusts: NA
Location:  27.71°N, 85.31°E
Report Text: VNKT 231350Z 25004KT 8000 FEW020 18/15 Q1020 NOSIG
Loading
Personal Weather Stations






























Interactive Weather Map
Tropical Storm Tracking
New forecast layout! Learn more

10-Day Weather Forecast

Advertisements
Track Severe Weather on mobile